createdAt,value
2023-03-18T00:01:18.111Z,84.80
2023-03-18T00:04:19.747Z,84.70
2023-03-18T00:07:21.266Z,84.50
2023-03-18T00:10:23.158Z,84.90
2023-03-18T00:13:25.583Z,85.10
2023-03-18T00:16:27.486Z,85.30
2023-03-18T00:19:29.429Z,85.60
2023-03-18T00:22:31.891Z,85.20
2023-03-18T00:25:33.480Z,85.40
2023-03-18T00:28:36.330Z,85.40
2023-03-18T00:31:40.884Z,85.80
2023-03-18T00:34:42.616Z,84.20
2023-03-18T00:37:45.126Z,85.40
2023-03-18T00:41:01.178Z,86.70
2023-03-18T00:44:03.185Z,86.50
2023-03-18T00:47:04.898Z,85.60
2023-03-18T00:50:08.318Z,85.70
2023-03-18T00:53:10.070Z,85.80
2023-03-18T00:56:13.270Z,86.20
2023-03-18T00:59:14.841Z,86.40
2023-03-18T01:02:17.063Z,86.20
2023-03-18T01:05:19.107Z,86.80
2023-03-18T01:08:22.015Z,86.70
2023-03-18T01:11:24.521Z,86.60
2023-03-18T01:14:26.429Z,87.10
2023-03-18T01:17:28.194Z,87.50
2023-03-18T01:20:30.361Z,87.10
2023-03-18T01:23:32.548Z,87.50
2023-03-18T01:26:34.232Z,87.80
2023-03-18T01:29:36.164Z,87.80
2023-03-18T01:32:37.966Z,87.30
2023-03-18T01:35:39.659Z,87.10
2023-03-18T01:38:42.332Z,87.10
2023-03-18T01:41:44.961Z,87.20
2023-03-18T01:44:46.992Z,87.10
2023-03-18T01:47:48.562Z,87.30
2023-03-18T01:51:00.195Z,86.80
2023-03-18T01:54:04.758Z,87.70
2023-03-18T01:57:07.481Z,87.30
2023-03-18T02:00:11.515Z,88.30
2023-03-18T02:03:13.944Z,86.90
2023-03-18T02:06:16.279Z,87.30
2023-03-18T02:09:19.086Z,87.60
2023-03-18T02:12:31.738Z,87.70
2023-03-18T02:15:37.181Z,88.40
2023-03-18T02:18:43.469Z,87.90
2023-03-18T02:22:16.063Z,88.20
2023-03-18T02:25:47.775Z,88.40
2023-03-18T02:28:51.817Z,86.60
2023-03-18T02:31:55.680Z,88.30
2023-03-18T02:35:01.242Z,88.20
2023-03-18T02:38:04.808Z,88.80
2023-03-18T02:41:06.350Z,89.00
2023-03-18T02:44:11.502Z,90.00
2023-03-18T02:47:20.695Z,89.80
2023-03-18T02:50:22.483Z,90.10
2023-03-18T02:53:24.083Z,90.00
2023-03-18T02:56:26.459Z,90.20
2023-03-18T02:59:28.430Z,90.60
2023-03-18T03:02:30.046Z,90.20
2023-03-18T03:05:34.162Z,90.40
2023-03-18T03:08:35.924Z,90.70
2023-03-18T03:11:37.555Z,90.50
2023-03-18T03:14:39.097Z,90.40
2023-03-18T03:17:41.911Z,90.50
2023-03-18T03:20:44.975Z,90.40
2023-03-18T03:23:47.731Z,90.50
2023-03-18T03:26:49.292Z,90.30
2023-03-18T03:29:50.834Z,90.40
2023-03-18T03:32:52.899Z,90.60
2023-03-18T03:35:55.543Z,90.80
2023-03-18T03:38:57.139Z,90.70
2023-03-18T03:41:58.727Z,91.10
2023-03-18T03:45:00.874Z,90.80
2023-03-18T03:48:02.464Z,91.00
2023-03-18T03:51:04.240Z,90.80
2023-03-18T03:54:05.808Z,90.90
2023-03-18T03:57:07.848Z,91.00
2023-03-18T04:00:13.434Z,91.00
2023-03-18T04:03:15.001Z,90.90
2023-03-18T04:06:16.578Z,91.10
2023-03-18T04:09:18.214Z,91.40
2023-03-18T04:12:19.918Z,91.10
2023-03-18T04:15:22.758Z,91.00
2023-03-18T04:18:24.639Z,91.00
2023-03-18T04:21:26.323Z,90.90
2023-03-18T04:24:27.971Z,91.00
2023-03-18T04:27:29.893Z,91.00
2023-03-18T04:30:32.156Z,91.10
2023-03-18T04:33:34.374Z,91.10
2023-03-18T04:36:36.328Z,91.00
2023-03-18T04:39:37.897Z,91.20
2023-03-18T04:42:39.624Z,91.70
2023-03-18T04:45:41.207Z,91.00
2023-03-18T04:48:43.328Z,91.20
2023-03-18T04:51:46.456Z,91.30
2023-03-18T04:54:48.147Z,91.20
2023-03-18T04:57:50.425Z,91.20
2023-03-18T05:00:52.523Z,91.20
2023-03-18T05:03:54.235Z,91.30
2023-03-18T05:06:56.179Z,91.20
2023-03-18T05:09:58.146Z,91.20
2023-03-18T05:13:00.591Z,90.90
2023-03-18T05:16:02.374Z,91.30
2023-03-18T05:19:04.200Z,91.40
2023-03-18T05:22:06.468Z,91.80
2023-03-18T05:25:11.141Z,91.30
2023-03-18T05:28:12.687Z,91.40
2023-03-18T05:31:14.320Z,91.30
2023-03-18T05:34:15.859Z,91.30
2023-03-18T05:37:17.403Z,91.40
2023-03-18T05:40:19.009Z,91.50
2023-03-18T05:43:21.710Z,91.40
2023-03-18T05:46:23.301Z,91.50
2023-03-18T05:49:24.950Z,91.40
2023-03-18T05:52:26.927Z,91.30
2023-03-18T05:55:30.221Z,91.50
2023-03-18T05:58:32.603Z,91.50
2023-03-18T06:01:34.167Z,91.50
2023-03-18T06:04:35.931Z,91.50
2023-03-18T06:07:40.384Z,91.50
2023-03-18T06:10:41.925Z,90.30
2023-03-18T06:13:43.464Z,91.50
2023-03-18T06:16:45.466Z,91.60
2023-03-18T06:19:48.139Z,91.70
2023-03-18T06:22:49.936Z,91.70
2023-03-18T06:25:52.357Z,91.60
2023-03-18T06:28:54.079Z,91.60
2023-03-18T06:31:55.938Z,91.60
2023-03-18T06:34:57.479Z,91.70
2023-03-18T06:37:59.085Z,91.70
2023-03-18T06:41:01.943Z,91.70
2023-03-18T06:44:04.073Z,91.70
2023-03-18T06:47:05.727Z,91.70
2023-03-18T06:50:08.309Z,91.60
2023-03-18T06:53:10.491Z,91.30
2023-03-18T06:56:15.800Z,91.70
2023-03-18T06:59:17.494Z,91.70
2023-03-18T07:02:19.428Z,92.00
2023-03-18T07:05:21.114Z,91.80
2023-03-18T07:08:23.188Z,91.80
2023-03-18T07:11:25.561Z,91.80
2023-03-18T07:14:28.318Z,91.90
2023-03-18T07:17:30.870Z,92.00
2023-03-18T07:20:33.161Z,92.00
2023-03-18T07:23:34.857Z,92.00
2023-03-18T07:26:37.375Z,91.70
2023-03-18T07:29:39.315Z,91.60
2023-03-18T07:32:40.995Z,91.60
2023-03-18T07:35:42.904Z,91.60
2023-03-18T07:38:44.484Z,91.30
2023-03-18T07:41:46.106Z,91.40
2023-03-18T07:44:47.674Z,91.20
2023-03-18T07:47:49.667Z,91.40
2023-03-18T07:50:51.335Z,91.50
2023-03-18T07:53:52.996Z,91.30
2023-03-18T07:56:54.756Z,91.40
2023-03-18T07:59:56.822Z,91.50
2023-03-18T08:02:58.725Z,91.50
2023-03-18T08:06:00.525Z,91.40
2023-03-18T08:09:03.545Z,91.80
2023-03-18T08:12:05.401Z,91.20
2023-03-18T08:15:08.991Z,91.20
2023-03-18T08:18:12.578Z,91.00
2023-03-18T08:21:14.395Z,91.70
2023-03-18T08:24:16.006Z,91.10
2023-03-18T08:27:18.348Z,91.10
2023-03-18T08:30:20.142Z,90.50
2023-03-18T08:33:23.448Z,91.00
2023-03-18T08:36:25.266Z,91.30
2023-03-18T08:39:27.007Z,90.90
2023-03-18T08:42:28.939Z,90.70
2023-03-18T08:45:30.929Z,90.70
2023-03-18T08:48:33.045Z,90.80
2023-03-18T08:51:34.752Z,90.00
2023-03-18T08:54:36.258Z,90.50
2023-03-18T08:57:38.882Z,90.40
2023-03-18T09:00:41.731Z,90.40
2023-03-18T09:03:44.515Z,90.30
2023-03-18T09:06:46.595Z,90.20
2023-03-18T09:09:48.195Z,90.20
2023-03-18T09:12:49.985Z,90.20
2023-03-18T09:15:51.785Z,90.50
2023-03-18T09:18:53.572Z,90.20
2023-03-18T09:21:55.126Z,90.30
2023-03-18T09:24:56.754Z,90.30
2023-03-18T09:27:58.351Z,90.60
2023-03-18T09:31:00.046Z,90.60
2023-03-18T09:34:02.764Z,91.00
2023-03-18T09:37:04.730Z,90.70
2023-03-18T09:40:07.738Z,90.60
2023-03-18T09:43:46.856Z,90.10
2023-03-18T09:47:12.998Z,88.40
2023-03-18T09:50:39.248Z,87.80
2023-03-18T09:53:48.239Z,90.10
2023-03-18T09:56:52.578Z,88.90
2023-03-18T10:00:09.008Z,89.10
2023-03-18T10:03:27.698Z,87.50
2023-03-18T10:06:29.356Z,88.00
2023-03-18T10:09:39.282Z,89.60
2023-03-18T10:12:47.243Z,89.30
2023-03-18T10:15:57.354Z,89.10
2023-03-18T10:18:59.988Z,89.70
2023-03-18T10:22:24.449Z,89.80
2023-03-18T10:25:53.564Z,87.70
2023-03-18T10:29:18.785Z,87.80
2023-03-18T10:32:39.162Z,87.50
2023-03-18T10:35:59.411Z,88.90
2023-03-18T10:39:03.024Z,87.80
2023-03-18T10:42:23.141Z,88.30
2023-03-18T10:45:28.017Z,87.30
2023-03-18T10:48:42.417Z,89.50
2023-03-18T10:52:00.347Z,87.90
2023-03-18T10:55:01.994Z,89.90
2023-03-18T10:58:17.915Z,88.90
2023-03-18T11:01:23.191Z,89.00
2023-03-18T11:04:28.800Z,87.00
2023-03-18T11:07:31.135Z,86.10
2023-03-18T11:10:40.332Z,86.30
2023-03-18T11:13:50.708Z,85.00
2023-03-18T11:17:30.399Z,86.30
2023-03-18T11:20:45.245Z,84.30
2023-03-18T11:24:24.255Z,85.30
2023-03-18T11:27:29.753Z,86.10
2023-03-18T11:30:45.096Z,85.20
2023-03-18T11:33:46.891Z,84.60
2023-03-18T11:36:58.654Z,84.50
2023-03-18T11:40:20.564Z,84.60
2023-03-18T11:43:25.501Z,82.40
2023-03-18T11:46:33.687Z,84.10
2023-03-18T11:49:35.350Z,83.10
2023-03-18T11:52:47.121Z,83.60
2023-03-18T11:56:09.240Z,82.00
2023-03-18T11:59:29.191Z,82.10
2023-03-18T12:02:49.535Z,81.90
2023-03-18T12:05:59.115Z,81.50
2023-03-18T12:09:24.977Z,84.10
2023-03-18T12:12:54.265Z,81.90
2023-03-18T12:16:22.090Z,81.60
2023-03-18T12:19:38.809Z,80.40
2023-03-18T12:23:01.904Z,79.40
2023-03-18T12:26:03.492Z,79.50
2023-03-18T12:29:33.827Z,82.80
2023-03-18T12:32:42.038Z,80.80
2023-03-18T12:36:10.223Z,82.80
2023-03-18T12:39:49.990Z,81.00
2023-03-18T12:43:04.906Z,81.30
2023-03-18T12:46:24.038Z,81.40
2023-03-18T12:49:33.225Z,81.10
2023-03-18T12:52:56.368Z,82.00
2023-03-18T12:56:03.761Z,81.80
2023-03-18T12:59:22.346Z,80.90
2023-03-18T13:02:46.734Z,78.80
2023-03-18T13:06:17.186Z,80.70
2023-03-18T13:09:21.870Z,79.40
2023-03-18T13:12:30.606Z,79.60
2023-03-18T13:15:40.453Z,80.80
2023-03-18T13:18:46.166Z,81.30
2023-03-18T13:21:53.985Z,81.60
2023-03-18T13:25:34.495Z,81.70
2023-03-18T13:28:39.232Z,80.60
2023-03-18T13:31:49.848Z,80.50
2023-03-18T13:35:00.266Z,77.50
2023-03-18T13:38:13.606Z,77.50
2023-03-18T13:41:25.473Z,79.80
2023-03-18T13:44:35.716Z,78.50
2023-03-18T13:47:40.464Z,80.70
2023-03-18T13:50:44.037Z,80.90
2023-03-18T13:53:47.065Z,81.10
2023-03-18T13:56:52.835Z,81.20
2023-03-18T14:00:22.731Z,80.20
2023-03-18T14:03:33.048Z,79.00
2023-03-18T14:06:34.589Z,81.10
2023-03-18T14:09:51.457Z,81.80
2023-03-18T14:12:53.107Z,80.70
2023-03-18T14:15:57.863Z,82.80
2023-03-18T14:19:07.897Z,83.50
2023-03-18T14:22:23.755Z,83.90
2023-03-18T14:25:31.719Z,83.80
2023-03-18T14:28:43.985Z,83.60
2023-03-18T14:31:58.487Z,84.00
2023-03-18T14:35:27.773Z,84.50
2023-03-18T14:38:36.176Z,84.80
2023-03-18T14:41:45.459Z,89.10
2023-03-18T14:44:52.361Z,90.50
2023-03-18T14:47:57.597Z,90.80
2023-03-18T14:51:08.156Z,90.10
2023-03-18T14:54:18.854Z,89.00
2023-03-18T14:57:22.447Z,88.30
2023-03-18T15:00:24.849Z,89.60
2023-03-18T15:03:28.651Z,90.20
2023-03-18T15:06:30.717Z,90.40
2023-03-18T15:09:35.018Z,90.50
2023-03-18T15:12:37.397Z,90.70
2023-03-18T15:15:39.924Z,90.60
2023-03-18T15:18:41.531Z,90.70
2023-03-18T15:21:43.866Z,91.00
2023-03-18T15:24:46.171Z,90.90
2023-03-18T15:27:49.705Z,91.00
2023-03-18T15:30:58.295Z,90.90
2023-03-18T15:34:07.719Z,90.00
2023-03-18T15:37:36.169Z,91.80
2023-03-18T15:40:52.525Z,90.10
2023-03-18T15:43:54.371Z,91.20
2023-03-18T15:47:06.258Z,91.30
2023-03-18T15:50:23.778Z,92.20
2023-03-18T15:53:33.643Z,92.50
2023-03-18T15:56:36.479Z,92.40
2023-03-18T15:59:38.500Z,92.60
2023-03-18T16:02:40.158Z,92.40
2023-03-18T16:05:41.724Z,92.60
2023-03-18T16:08:44.966Z,92.80
2023-03-18T16:11:58.681Z,93.10
2023-03-18T16:15:03.394Z,92.10
2023-03-18T16:18:05.061Z,92.70
2023-03-18T16:21:06.782Z,92.80
2023-03-18T16:24:08.799Z,92.80
2023-03-18T16:27:33.455Z,92.80
2023-03-18T16:30:39.891Z,93.50
2023-03-18T16:33:41.844Z,92.90
2023-03-18T16:36:44.284Z,92.90
2023-03-18T16:39:46.103Z,93.10
2023-03-18T16:42:48.196Z,93.20
2023-03-18T16:45:54.261Z,93.50
2023-03-18T16:48:55.951Z,93.60
2023-03-18T16:51:58.570Z,93.90
2023-03-18T16:55:00.637Z,93.70
2023-03-18T16:58:02.495Z,93.70
2023-03-18T17:01:07.231Z,93.80
2023-03-18T17:04:26.000Z,94.00
2023-03-18T17:07:29.347Z,94.40
2023-03-18T17:10:31.523Z,94.10
2023-03-18T17:13:37.961Z,94.10
2023-03-18T17:16:40.180Z,94.40
2023-03-18T17:19:41.773Z,94.30
2023-03-18T17:22:43.678Z,94.70
2023-03-18T17:25:52.209Z,94.40
2023-03-18T17:28:53.900Z,94.70
2023-03-18T17:31:56.190Z,94.70
2023-03-18T17:34:57.763Z,94.70
2023-03-18T17:37:59.653Z,94.70
2023-03-18T17:41:05.267Z,94.90
2023-03-18T17:44:30.030Z,95.00
2023-03-18T17:47:32.524Z,95.60
2023-03-18T17:50:34.109Z,95.00
2023-03-18T17:53:38.330Z,95.00
2023-03-18T17:56:40.471Z,95.00
2023-03-18T17:59:42.250Z,94.80
2023-03-18T18:02:44.925Z,95.20
2023-03-18T18:05:46.737Z,95.10
2023-03-18T18:08:49.612Z,95.00
2023-03-18T18:11:51.816Z,96.90
2023-03-18T18:14:53.444Z,95.30
2023-03-18T18:17:55.675Z,95.90
2023-03-18T18:21:01.631Z,95.30
2023-03-18T18:24:05.888Z,96.10
2023-03-18T18:27:18.588Z,95.30
2023-03-18T18:30:24.874Z,96.00
2023-03-18T18:33:27.257Z,95.90
2023-03-18T18:36:29.233Z,96.60
2023-03-18T18:39:31.088Z,96.80
2023-03-18T18:42:32.800Z,96.80
2023-03-18T18:45:36.329Z,96.30
2023-03-18T18:48:42.176Z,97.00
2023-03-18T18:51:46.823Z,97.40
2023-03-18T18:54:48.496Z,97.00
2023-03-18T18:57:50.143Z,96.10
2023-03-18T19:00:52.220Z,96.00
2023-03-18T19:03:54.055Z,95.70
2023-03-18T19:06:56.152Z,96.10
2023-03-18T19:09:58.178Z,96.10
2023-03-18T19:13:00.109Z,95.90
2023-03-18T19:16:15.704Z,96.10
2023-03-18T19:19:25.120Z,96.40
2023-03-18T19:22:26.777Z,96.50
2023-03-18T19:25:28.402Z,96.20
2023-03-18T19:28:58.457Z,96.00
2023-03-18T19:32:01.369Z,96.40
2023-03-18T19:35:03.300Z,96.70
2023-03-18T19:38:05.464Z,96.00
2023-03-18T19:41:07.024Z,95.70
2023-03-18T19:44:18.780Z,96.80
2023-03-18T19:47:26.243Z,95.70
2023-03-18T19:50:27.819Z,96.40
2023-03-18T19:53:29.820Z,96.30
2023-03-18T19:56:31.522Z,96.20
2023-03-18T19:59:39.210Z,96.10
2023-03-18T20:02:41.282Z,96.20
2023-03-18T20:05:42.930Z,95.90
2023-03-18T20:08:44.901Z,96.00
2023-03-18T20:11:49.022Z,96.40
2023-03-18T20:14:51.049Z,96.00
2023-03-18T20:17:53.657Z,96.10
2023-03-18T20:20:55.699Z,96.10
2023-03-18T20:24:04.373Z,96.10
2023-03-18T20:27:05.892Z,96.00
2023-03-18T20:30:37.951Z,95.90
2023-03-18T20:33:39.650Z,95.40
2023-03-18T20:36:42.301Z,95.70
2023-03-18T20:39:43.841Z,95.70
2023-03-18T20:42:45.591Z,95.80
2023-03-18T20:45:47.248Z,95.70
2023-03-18T20:48:49.596Z,95.70
2023-03-18T20:51:51.618Z,95.60
2023-03-18T20:54:53.396Z,95.60
2023-03-18T20:57:54.966Z,95.30
2023-03-18T21:00:56.645Z,95.60
2023-03-18T21:04:01.976Z,95.50
2023-03-18T21:07:03.569Z,95.60
2023-03-18T21:10:07.188Z,95.60
2023-03-18T21:13:33.633Z,95.20
2023-03-18T21:16:37.694Z,95.60
2023-03-18T21:19:40.393Z,95.40
2023-03-18T21:22:43.179Z,95.40
2023-03-18T21:25:44.694Z,95.50
2023-03-18T21:28:46.782Z,95.70
2023-03-18T21:31:48.613Z,95.70
2023-03-18T21:34:52.074Z,95.50
2023-03-18T21:37:53.720Z,95.70
2023-03-18T21:40:56.449Z,95.70
2023-03-18T21:43:58.047Z,95.70
2023-03-18T21:46:59.578Z,95.70
2023-03-18T21:50:01.517Z,95.80
2023-03-18T21:53:03.121Z,95.70
2023-03-18T21:56:05.378Z,95.70
2023-03-18T21:59:06.924Z,95.60
2023-03-18T22:02:26.408Z,95.90
2023-03-18T22:05:28.004Z,95.20
2023-03-18T22:08:29.534Z,95.60
2023-03-18T22:11:31.492Z,95.90
2023-03-18T22:14:33.095Z,95.80
2023-03-18T22:17:35.022Z,95.80
2023-03-18T22:20:38.923Z,95.70
2023-03-18T22:23:43.347Z,95.40
2023-03-18T22:26:44.979Z,95.10
2023-03-18T22:29:47.327Z,94.80
2023-03-18T22:32:49.178Z,94.60
2023-03-18T22:35:50.955Z,94.50
2023-03-18T22:38:52.715Z,94.50
2023-03-18T22:41:54.285Z,94.60
2023-03-18T22:44:56.170Z,94.70
2023-03-18T22:48:07.659Z,94.80
2023-03-18T22:51:21.927Z,95.10
2023-03-18T22:54:24.283Z,95.20
2023-03-18T22:57:26.923Z,95.10
2023-03-18T23:00:40.061Z,95.10
2023-03-18T23:03:43.868Z,95.20
2023-03-18T23:06:45.952Z,95.10
2023-03-18T23:09:56.564Z,95.10
2023-03-18T23:12:58.684Z,95.10
2023-03-18T23:16:02.167Z,95.20
2023-03-18T23:19:03.962Z,95.30
2023-03-18T23:22:05.861Z,95.30
2023-03-18T23:25:08.222Z,95.10
2023-03-18T23:28:10.119Z,95.20
2023-03-18T23:31:12.713Z,94.80
2023-03-18T23:34:14.318Z,94.80
2023-03-18T23:37:17.530Z,94.70
2023-03-18T23:40:19.319Z,94.60
2023-03-18T23:43:21.388Z,94.40
2023-03-18T23:46:23.009Z,94.60
2023-03-18T23:49:24.640Z,94.80
2023-03-18T23:52:26.306Z,95.00
2023-03-18T23:55:35.476Z,95.10
2023-03-18T23:58:37.505Z,95.10
